sensor_id;sensor_type;location;lat;lon;timestamp;temperature;humidity
5196;DHT22;2617;51.006;12.436;2023-06-04T00:02:50;8.40;99.90
5196;DHT22;2617;51.006;12.436;2023-06-04T00:07:53;8.30;99.90
5196;DHT22;2617;51.006;12.436;2023-06-04T00:12:55;8.30;99.90
5196;DHT22;2617;51.006;12.436;2023-06-04T00:17:58;8.10;99.90
5196;DHT22;2617;51.006;12.436;2023-06-04T00:23:01;8.10;99.90
5196;DHT22;2617;51.006;12.436;2023-06-04T00:28:03;7.90;99.90
5196;DHT22;2617;51.006;12.436;2023-06-04T00:33:06;7.80;99.90
5196;DHT22;2617;51.006;12.436;2023-06-04T00:38:09;7.60;99.90
5196;DHT22;2617;51.006;12.436;2023-06-04T00:43:11;7.50;99.90
5196;DHT22;2617;51.006;12.436;2023-06-04T00:48:14;7.40;99.90
5196;DHT22;2617;51.006;12.436;2023-06-04T00:53:16;7.30;99.90
5196;DHT22;2617;51.006;12.436;2023-06-04T00:58:19;7.20;99.90
5196;DHT22;2617;51.006;12.436;2023-06-04T01:03:21;7.10;99.90
5196;DHT22;2617;51.006;12.436;2023-06-04T01:08:24;7.00;99.90
5196;DHT22;2617;51.006;12.436;2023-06-04T01:13:26;7.00;99.90
5196;DHT22;2617;51.006;12.436;2023-06-04T01:18:29;6.80;99.90
5196;DHT22;2617;51.006;12.436;2023-06-04T01:23:46;6.80;99.90
5196;DHT22;2617;51.006;12.436;2023-06-04T01:28:45;6.80;99.90
5196;DHT22;2617;51.006;12.436;2023-06-04T01:33:51;6.70;99.90
5196;DHT22;2617;51.006;12.436;2023-06-04T01:38:53;6.60;99.90
5196;DHT22;2617;51.006;12.436;2023-06-04T01:43:55;6.50;99.90
5196;DHT22;2617;51.006;12.436;2023-06-04T01:48:58;6.50;99.90
5196;DHT22;2617;51.006;12.436;2023-06-04T01:54:01;6.30;99.90
5196;DHT22;2617;51.006;12.436;2023-06-04T01:59:03;6.30;99.90
5196;DHT22;2617;51.006;12.436;2023-06-04T02:04:06;6.20;99.90
5196;DHT22;2617;51.006;12.436;2023-06-04T02:09:09;6.00;99.90
5196;DHT22;2617;51.006;12.436;2023-06-04T02:14:11;6.00;99.90
5196;DHT22;2617;51.006;12.436;2023-06-04T02:19:15;5.90;99.90
5196;DHT22;2617;51.006;12.436;2023-06-04T02:24:17;5.90;99.90
5196;DHT22;2617;51.006;12.436;2023-06-04T02:29:19;5.80;99.90
5196;DHT22;2617;51.006;12.436;2023-06-04T02:34:23;5.70;99.90
5196;DHT22;2617;51.006;12.436;2023-06-04T02:39:26;5.60;99.90
5196;DHT22;2617;51.006;12.436;2023-06-04T02:44:29;5.50;99.90
5196;DHT22;2617;51.006;12.436;2023-06-04T02:49:32;5.50;99.90
5196;DHT22;2617;51.006;12.436;2023-06-04T02:54:35;5.40;99.90
5196;DHT22;2617;51.006;12.436;2023-06-04T02:59:37;5.40;99.90
5196;DHT22;2617;51.006;12.436;2023-06-04T03:04:40;5.40;99.90
5196;DHT22;2617;51.006;12.436;2023-06-04T03:09:42;5.40;99.90
5196;DHT22;2617;51.006;12.436;2023-06-04T03:14:44;5.60;99.90
5196;DHT22;2617;51.006;12.436;2023-06-04T03:19:48;7.10;99.90
5196;DHT22;2617;51.006;12.436;2023-06-04T03:24:50;7.10;99.90
5196;DHT22;2617;51.006;12.436;2023-06-04T03:29:53;7.90;99.90
5196;DHT22;2617;51.006;12.436;2023-06-04T03:34:56;10.30;99.90
5196;DHT22;2617;51.006;12.436;2023-06-04T03:39:58;10.20;99.90
5196;DHT22;2617;51.006;12.436;2023-06-04T03:45:01;11.80;99.90
5196;DHT22;2617;51.006;12.436;2023-06-04T03:50:04;13.30;99.90
5196;DHT22;2617;51.006;12.436;2023-06-04T03:55:07;16.10;90.20
5196;DHT22;2617;51.006;12.436;2023-06-04T04:00:10;16.10;90.20
5196;DHT22;2617;51.006;12.436;2023-06-04T04:05:14;17.10;81.30
5196;DHT22;2617;51.006;12.436;2023-06-04T04:10:17;17.10;81.90
5196;DHT22;2617;51.006;12.436;2023-06-04T04:15:20;19.10;74.60
5196;DHT22;2617;51.006;12.436;2023-06-04T04:20:24;19.10;74.60
5196;DHT22;2617;51.006;12.436;2023-06-04T04:25:26;20.30;71.50
5196;DHT22;2617;51.006;12.436;2023-06-04T04:30:28;21.20;66.00
5196;DHT22;2617;51.006;12.436;2023-06-04T04:35:31;22.00;62.90
5196;DHT22;2617;51.006;12.436;2023-06-04T04:40:34;23.10;58.70
5196;DHT22;2617;51.006;12.436;2023-06-04T04:45:37;23.00;57.90
5196;DHT22;2617;51.006;12.436;2023-06-04T04:50:39;23.40;56.60
5196;DHT22;2617;51.006;12.436;2023-06-04T04:55:42;23.90;54.20
5196;DHT22;2617;51.006;12.436;2023-06-04T05:00:45;23.90;54.20
5196;DHT22;2617;51.006;12.436;2023-06-04T05:05:47;24.00;53.20
5196;DHT22;2617;51.006;12.436;2023-06-04T05:10:50;24.00;53.00
5196;DHT22;2617;51.006;12.436;2023-06-04T05:15:54;24.00;53.10
5196;DHT22;2617;51.006;12.436;2023-06-04T05:20:58;23.60;53.30
5196;DHT22;2617;51.006;12.436;2023-06-04T05:26:00;23.10;53.50
5196;DHT22;2617;51.006;12.436;2023-06-04T05:31:03;21.60;56.90
5196;DHT22;2617;51.006;12.436;2023-06-04T05:36:05;20.30;58.30
5196;DHT22;2617;51.006;12.436;2023-06-04T05:41:08;19.20;58.50
5196;DHT22;2617;51.006;12.436;2023-06-04T05:46:11;17.10;63.30
5196;DHT22;2617;51.006;12.436;2023-06-04T05:51:13;17.10;63.30
5196;DHT22;2617;51.006;12.436;2023-06-04T05:56:16;16.40;77.20
5196;DHT22;2617;51.006;12.436;2023-06-04T06:01:19;14.70;85.80
5196;DHT22;2617;51.006;12.436;2023-06-04T06:06:21;14.70;85.70
5196;DHT22;2617;51.006;12.436;2023-06-04T06:11:24;14.30;89.20
5196;DHT22;2617;51.006;12.436;2023-06-04T06:16:26;14.20;90.60
5196;DHT22;2617;51.006;12.436;2023-06-04T06:21:29;14.30;89.10
5196;DHT22;2617;51.006;12.436;2023-06-04T06:26:32;14.80;87.20
5196;DHT22;2617;51.006;12.436;2023-06-04T06:31:34;14.80;87.20
5196;DHT22;2617;51.006;12.436;2023-06-04T06:36:37;14.70;86.20
5196;DHT22;2617;51.006;12.436;2023-06-04T06:41:41;14.70;86.70
5196;DHT22;2617;51.006;12.436;2023-06-04T06:46:44;14.60;87.10
5196;DHT22;2617;51.006;12.436;2023-06-04T06:51:46;14.60;87.00
5196;DHT22;2617;51.006;12.436;2023-06-04T06:56:49;14.70;88.50
5196;DHT22;2617;51.006;12.436;2023-06-04T07:01:51;15.00;88.00
5196;DHT22;2617;51.006;12.436;2023-06-04T07:06:54;15.10;89.70
5196;DHT22;2617;51.006;12.436;2023-06-04T07:11:57;15.60;88.20
5196;DHT22;2617;51.006;12.436;2023-06-04T07:17:00;15.60;88.20
5196;DHT22;2617;51.006;12.436;2023-06-04T07:22:02;16.30;84.40
5196;DHT22;2617;51.006;12.436;2023-06-04T07:27:11;16.20;83.80
5196;DHT22;2617;51.006;12.436;2023-06-04T07:32:14;16.00;85.50
5196;DHT22;2617;51.006;12.436;2023-06-04T07:37:16;16.30;84.70
5196;DHT22;2617;51.006;12.436;2023-06-04T07:42:19;16.50;84.30
5196;DHT22;2617;51.006;12.436;2023-06-04T07:47:21;16.60;80.10
5196;DHT22;2617;51.006;12.436;2023-06-04T07:52:24;16.40;80.00
5196;DHT22;2617;51.006;12.436;2023-06-04T07:57:26;16.50;81.80
5196;DHT22;2617;51.006;12.436;2023-06-04T08:02:29;16.70;77.00
5196;DHT22;2617;51.006;12.436;2023-06-04T08:07:31;17.00;77.50
5196;DHT22;2617;51.006;12.436;2023-06-04T08:12:34;17.40;75.20
5196;DHT22;2617;51.006;12.436;2023-06-04T08:17:36;17.70;74.00
5196;DHT22;2617;51.006;12.436;2023-06-04T08:22:39;18.20;69.20
5196;DHT22;2617;51.006;12.436;2023-06-04T08:27:43;18.30;62.70
5196;DHT22;2617;51.006;12.436;2023-06-04T08:32:45;18.30;62.70
5196;DHT22;2617;51.006;12.436;2023-06-04T08:37:48;18.40;57.60
5196;DHT22;2617;51.006;12.436;2023-06-04T08:42:51;18.50;58.30
5196;DHT22;2617;51.006;12.436;2023-06-04T08:47:53;18.50;58.30
5196;DHT22;2617;51.006;12.436;2023-06-04T08:52:57;18.60;58.10
5196;DHT22;2617;51.006;12.436;2023-06-04T08:58:00;18.80;54.30
5196;DHT22;2617;51.006;12.436;2023-06-04T09:03:02;18.90;53.80
5196;DHT22;2617;51.006;12.436;2023-06-04T09:08:05;18.80;52.70
5196;DHT22;2617;51.006;12.436;2023-06-04T09:13:08;19.50;54.30
5196;DHT22;2617;51.006;12.436;2023-06-04T09:18:11;19.40;52.10
5196;DHT22;2617;51.006;12.436;2023-06-04T09:23:15;19.80;52.30
5196;DHT22;2617;51.006;12.436;2023-06-04T09:28:18;20.00;53.00
5196;DHT22;2617;51.006;12.436;2023-06-04T09:33:20;19.90;53.00
5196;DHT22;2617;51.006;12.436;2023-06-04T09:38:23;19.70;52.00
5196;DHT22;2617;51.006;12.436;2023-06-04T09:43:25;19.70;52.20
5196;DHT22;2617;51.006;12.436;2023-06-04T09:48:28;19.70;51.80
5196;DHT22;2617;51.006;12.436;2023-06-04T09:53:30;19.70;51.20
5196;DHT22;2617;51.006;12.436;2023-06-04T09:58:33;19.70;50.90
5196;DHT22;2617;51.006;12.436;2023-06-04T10:03:36;19.70;51.10
5196;DHT22;2617;51.006;12.436;2023-06-04T10:08:38;20.10;51.50
5196;DHT22;2617;51.006;12.436;2023-06-04T10:13:45;20.40;50.70
5196;DHT22;2617;51.006;12.436;2023-06-04T10:18:47;20.20;50.50
5196;DHT22;2617;51.006;12.436;2023-06-04T10:23:49;20.10;50.20
5196;DHT22;2617;51.006;12.436;2023-06-04T10:28:52;20.10;49.00
5196;DHT22;2617;51.006;12.436;2023-06-04T10:33:56;20.10;48.90
5196;DHT22;2617;51.006;12.436;2023-06-04T10:38:59;20.30;48.60
5196;DHT22;2617;51.006;12.436;2023-06-04T10:44:02;20.70;50.60
5196;DHT22;2617;51.006;12.436;2023-06-04T10:49:04;20.80;50.40
5196;DHT22;2617;51.006;12.436;2023-06-04T10:54:06;21.20;48.50
5196;DHT22;2617;51.006;12.436;2023-06-04T10:59:14;21.30;49.50
5196;DHT22;2617;51.006;12.436;2023-06-04T11:04:25;21.30;49.50
5196;DHT22;2617;51.006;12.436;2023-06-04T11:09:31;21.30;47.70
5196;DHT22;2617;51.006;12.436;2023-06-04T11:14:33;21.10;47.90
5196;DHT22;2617;51.006;12.436;2023-06-04T11:19:36;21.10;47.80
5196;DHT22;2617;51.006;12.436;2023-06-04T11:24:38;21.00;45.90
5196;DHT22;2617;51.006;12.436;2023-06-04T11:29:41;21.80;45.60
5196;DHT22;2617;51.006;12.436;2023-06-04T11:34:44;21.70;45.40
5196;DHT22;2617;51.006;12.436;2023-06-04T11:39:46;21.50;47.00
5196;DHT22;2617;51.006;12.436;2023-06-04T11:44:55;21.60;45.90
5196;DHT22;2617;51.006;12.436;2023-06-04T11:50:00;21.60;45.80
5196;DHT22;2617;51.006;12.436;2023-06-04T11:55:03;22.10;44.00
5196;DHT22;2617;51.006;12.436;2023-06-04T12:00:07;22.20;44.80
5196;DHT22;2617;51.006;12.436;2023-06-04T12:05:13;22.00;46.40
5196;DHT22;2617;51.006;12.436;2023-06-04T12:10:16;22.20;43.50
5196;DHT22;2617;51.006;12.436;2023-06-04T12:15:19;22.00;43.00
5196;DHT22;2617;51.006;12.436;2023-06-04T12:20:33;22.00;42.90
5196;DHT22;2617;51.006;12.436;2023-06-04T12:25:37;22.20;40.40
5196;DHT22;2617;51.006;12.436;2023-06-04T12:30:40;22.20;40.30
5196;DHT22;2617;51.006;12.436;2023-06-04T12:35:43;22.70;40.20
5196;DHT22;2617;51.006;12.436;2023-06-04T12:40:46;22.60;40.00
5196;DHT22;2617;51.006;12.436;2023-06-04T12:45:49;23.20;40.80
5196;DHT22;2617;51.006;12.436;2023-06-04T12:50:52;23.20;39.70
5196;DHT22;2617;51.006;12.436;2023-06-04T12:55:55;23.20;39.70
5196;DHT22;2617;51.006;12.436;2023-06-04T13:00:58;22.40;41.00
5196;DHT22;2617;51.006;12.436;2023-06-04T13:06:02;22.30;41.10
5196;DHT22;2617;51.006;12.436;2023-06-04T13:11:04;22.30;41.10
5196;DHT22;2617;51.006;12.436;2023-06-04T13:16:08;22.70;40.30
5196;DHT22;2617;51.006;12.436;2023-06-04T13:21:11;22.30;39.80
5196;DHT22;2617;51.006;12.436;2023-06-04T13:26:13;22.40;39.40
5196;DHT22;2617;51.006;12.436;2023-06-04T13:31:16;22.40;41.20
5196;DHT22;2617;51.006;12.436;2023-06-04T13:36:18;22.50;40.80
5196;DHT22;2617;51.006;12.436;2023-06-04T13:41:20;22.70;40.60
5196;DHT22;2617;51.006;12.436;2023-06-04T13:46:23;22.50;41.30
5196;DHT22;2617;51.006;12.436;2023-06-04T13:51:26;22.60;38.00
5196;DHT22;2617;51.006;12.436;2023-06-04T13:56:28;22.60;38.00
5196;DHT22;2617;51.006;12.436;2023-06-04T14:01:32;22.60;38.60
5196;DHT22;2617;51.006;12.436;2023-06-04T14:06:34;22.80;37.90
5196;DHT22;2617;51.006;12.436;2023-06-04T14:11:38;22.90;37.40
5196;DHT22;2617;51.006;12.436;2023-06-04T14:16:39;23.10;36.40
5196;DHT22;2617;51.006;12.436;2023-06-04T14:21:42;23.10;36.10
5196;DHT22;2617;51.006;12.436;2023-06-04T14:26:45;22.90;36.20
5196;DHT22;2617;51.006;12.436;2023-06-04T14:31:47;22.70;37.00
5196;DHT22;2617;51.006;12.436;2023-06-04T14:36:50;22.40;37.40
5196;DHT22;2617;51.006;12.436;2023-06-04T14:41:53;22.40;37.40
5196;DHT22;2617;51.006;12.436;2023-06-04T14:46:56;22.20;35.00
5196;DHT22;2617;51.006;12.436;2023-06-04T14:51:58;22.20;34.90
5196;DHT22;2617;51.006;12.436;2023-06-04T14:57:01;22.40;34.40
5196;DHT22;2617;51.006;12.436;2023-06-04T15:02:05;22.70;34.70
5196;DHT22;2617;51.006;12.436;2023-06-04T15:07:07;22.80;34.70
5196;DHT22;2617;51.006;12.436;2023-06-04T15:12:10;22.50;36.80
5196;DHT22;2617;51.006;12.436;2023-06-04T15:17:14;22.30;36.00
5196;DHT22;2617;51.006;12.436;2023-06-04T15:22:17;22.30;36.00
5196;DHT22;2617;51.006;12.436;2023-06-04T15:27:20;22.30;36.00
5196;DHT22;2617;51.006;12.436;2023-06-04T15:32:23;22.20;35.70
5196;DHT22;2617;51.006;12.436;2023-06-04T15:37:25;22.20;35.70
5196;DHT22;2617;51.006;12.436;2023-06-04T15:42:28;22.20;35.90
5196;DHT22;2617;51.006;12.436;2023-06-04T15:47:30;22.20;38.00
5196;DHT22;2617;51.006;12.436;2023-06-04T15:52:33;22.20;37.90
5196;DHT22;2617;51.006;12.436;2023-06-04T15:57:36;22.20;37.60
5196;DHT22;2617;51.006;12.436;2023-06-04T16:02:38;22.30;38.10
5196;DHT22;2617;51.006;12.436;2023-06-04T16:07:40;22.40;36.70
5196;DHT22;2617;51.006;12.436;2023-06-04T16:12:43;22.40;35.30
5196;DHT22;2617;51.006;12.436;2023-06-04T16:17:45;22.50;35.40
5196;DHT22;2617;51.006;12.436;2023-06-04T16:22:48;22.30;36.40
5196;DHT22;2617;51.006;12.436;2023-06-04T16:27:50;22.10;36.60
5196;DHT22;2617;51.006;12.436;2023-06-04T16:32:53;22.10;37.70
5196;DHT22;2617;51.006;12.436;2023-06-04T16:37:56;22.10;38.70
5196;DHT22;2617;51.006;12.436;2023-06-04T16:42:58;22.10;38.70
5196;DHT22;2617;51.006;12.436;2023-06-04T16:48:01;22.10;37.30
5196;DHT22;2617;51.006;12.436;2023-06-04T16:53:04;22.20;38.80
5196;DHT22;2617;51.006;12.436;2023-06-04T16:58:06;21.90;37.60
5196;DHT22;2617;51.006;12.436;2023-06-04T17:03:09;21.90;36.90
5196;DHT22;2617;51.006;12.436;2023-06-04T17:08:11;21.70;36.30
5196;DHT22;2617;51.006;12.436;2023-06-04T17:13:14;21.70;37.40
5196;DHT22;2617;51.006;12.436;2023-06-04T17:18:16;21.60;37.90
5196;DHT22;2617;51.006;12.436;2023-06-04T17:23:21;21.50;38.00
5196;DHT22;2617;51.006;12.436;2023-06-04T17:28:24;21.40;37.50
5196;DHT22;2617;51.006;12.436;2023-06-04T17:33:27;21.20;37.60
5196;DHT22;2617;51.006;12.436;2023-06-04T17:38:29;21.20;37.60
5196;DHT22;2617;51.006;12.436;2023-06-04T17:43:31;21.30;39.10
5196;DHT22;2617;51.006;12.436;2023-06-04T17:48:35;21.50;39.40
5196;DHT22;2617;51.006;12.436;2023-06-04T17:53:37;21.60;38.20
5196;DHT22;2617;51.006;12.436;2023-06-04T17:58:40;21.60;39.10
5196;DHT22;2617;51.006;12.436;2023-06-04T18:03:43;21.60;39.80
5196;DHT22;2617;51.006;12.436;2023-06-04T18:08:46;21.50;39.70
5196;DHT22;2617;51.006;12.436;2023-06-04T18:13:48;21.50;39.60
5196;DHT22;2617;51.006;12.436;2023-06-04T18:18:51;21.30;40.80
5196;DHT22;2617;51.006;12.436;2023-06-04T18:23:54;20.50;42.50
5196;DHT22;2617;51.006;12.436;2023-06-04T18:28:56;20.50;42.50
5196;DHT22;2617;51.006;12.436;2023-06-04T18:33:59;20.30;43.00
5196;DHT22;2617;51.006;12.436;2023-06-04T18:39:02;19.80;44.00
5196;DHT22;2617;51.006;12.436;2023-06-04T18:44:05;19.60;44.30
5196;DHT22;2617;51.006;12.436;2023-06-04T18:49:08;19.30;44.40
5196;DHT22;2617;51.006;12.436;2023-06-04T18:54:11;18.90;45.40
5196;DHT22;2617;51.006;12.436;2023-06-04T18:59:14;18.90;45.30
5196;DHT22;2617;51.006;12.436;2023-06-04T19:04:16;18.70;45.80
5196;DHT22;2617;51.006;12.436;2023-06-04T19:09:18;18.50;46.40
5196;DHT22;2617;51.006;12.436;2023-06-04T19:14:21;18.30;46.70
5196;DHT22;2617;51.006;12.436;2023-06-04T19:19:23;18.10;48.00
5196;DHT22;2617;51.006;12.436;2023-06-04T19:24:26;17.80;49.20
5196;DHT22;2617;51.006;12.436;2023-06-04T19:29:29;17.30;51.50
5196;DHT22;2617;51.006;12.436;2023-06-04T19:34:31;17.20;51.40
5196;DHT22;2617;51.006;12.436;2023-06-04T19:39:35;16.80;54.40
5196;DHT22;2617;51.006;12.436;2023-06-04T19:44:38;16.70;55.00
5196;DHT22;2617;51.006;12.436;2023-06-04T19:49:40;16.70;55.00
5196;DHT22;2617;51.006;12.436;2023-06-04T19:54:43;16.50;55.60
5196;DHT22;2617;51.006;12.436;2023-06-04T19:59:46;16.10;57.70
5196;DHT22;2617;51.006;12.436;2023-06-04T20:04:48;16.10;57.60
5196;DHT22;2617;51.006;12.436;2023-06-04T20:09:51;15.90;58.60
5196;DHT22;2617;51.006;12.436;2023-06-04T20:14:53;15.70;59.00
5196;DHT22;2617;51.006;12.436;2023-06-04T20:19:56;15.30;61.60
5196;DHT22;2617;51.006;12.436;2023-06-04T20:24:59;15.30;61.60
5196;DHT22;2617;51.006;12.436;2023-06-04T20:30:01;15.00;63.80
5196;DHT22;2617;51.006;12.436;2023-06-04T20:35:05;14.80;66.50
5196;DHT22;2617;51.006;12.436;2023-06-04T20:40:08;14.50;68.20
5196;DHT22;2617;51.006;12.436;2023-06-04T20:45:11;14.20;70.30
5196;DHT22;2617;51.006;12.436;2023-06-04T20:50:14;14.20;69.40
5196;DHT22;2617;51.006;12.436;2023-06-04T20:55:16;14.10;70.60
5196;DHT22;2617;51.006;12.436;2023-06-04T21:00:19;14.00;72.10
5196;DHT22;2617;51.006;12.436;2023-06-04T21:05:22;13.70;74.50
5196;DHT22;2617;51.006;12.436;2023-06-04T21:10:24;13.70;74.50
5196;DHT22;2617;51.006;12.436;2023-06-04T21:15:27;13.50;76.40
5196;DHT22;2617;51.006;12.436;2023-06-04T21:20:30;13.20;80.00
5196;DHT22;2617;51.006;12.436;2023-06-04T21:25:32;13.10;79.80
5196;DHT22;2617;51.006;12.436;2023-06-04T21:30:35;13.00;82.10
5196;DHT22;2617;51.006;12.436;2023-06-04T21:35:38;12.90;84.20
5196;DHT22;2617;51.006;12.436;2023-06-04T21:40:40;12.70;86.30
5196;DHT22;2617;51.006;12.436;2023-06-04T21:45:42;12.50;90.10
5196;DHT22;2617;51.006;12.436;2023-06-04T21:50:45;12.30;91.80
5196;DHT22;2617;51.006;12.436;2023-06-04T21:55:47;12.20;93.90
5196;DHT22;2617;51.006;12.436;2023-06-04T22:00:50;12.00;94.90
5196;DHT22;2617;51.006;12.436;2023-06-04T22:05:53;11.80;96.80
5196;DHT22;2617;51.006;12.436;2023-06-04T22:10:56;11.70;97.50
5196;DHT22;2617;51.006;12.436;2023-06-04T22:15:58;11.70;97.50
5196;DHT22;2617;51.006;12.436;2023-06-04T22:21:01;11.60;98.60
5196;DHT22;2617;51.006;12.436;2023-06-04T22:26:03;11.40;99.50
5196;DHT22;2617;51.006;12.436;2023-06-04T22:31:06;11.30;99.90
5196;DHT22;2617;51.006;12.436;2023-06-04T22:36:08;11.20;99.90
5196;DHT22;2617;51.006;12.436;2023-06-04T22:41:11;11.00;99.90
5196;DHT22;2617;51.006;12.436;2023-06-04T22:46:14;10.80;99.90
5196;DHT22;2617;51.006;12.436;2023-06-04T22:51:16;10.70;99.90
5196;DHT22;2617;51.006;12.436;2023-06-04T22:56:19;10.70;99.90
5196;DHT22;2617;51.006;12.436;2023-06-04T23:01:22;10.40;99.90
5196;DHT22;2617;51.006;12.436;2023-06-04T23:06:24;10.40;99.90
5196;DHT22;2617;51.006;12.436;2023-06-04T23:11:27;10.30;99.90
5196;DHT22;2617;51.006;12.436;2023-06-04T23:16:29;10.20;99.90
5196;DHT22;2617;51.006;12.436;2023-06-04T23:21:32;9.90;99.90
5196;DHT22;2617;51.006;12.436;2023-06-04T23:26:35;9.90;99.90
5196;DHT22;2617;51.006;12.436;2023-06-04T23:31:37;9.80;99.90
5196;DHT22;2617;51.006;12.436;2023-06-04T23:36:40;9.70;99.90
5196;DHT22;2617;51.006;12.436;2023-06-04T23:41:42;9.60;99.90
5196;DHT22;2617;51.006;12.436;2023-06-04T23:46:45;9.50;99.90
5196;DHT22;2617;51.006;12.436;2023-06-04T23:51:48;9.40;99.90
5196;DHT22;2617;51.006;12.436;2023-06-04T23:56:50;9.40;99.90
